Time;durP1;ratioP1;P1;durP2;ratioP2;P2;SDS_P1;SDS_P2;PMS_P1;PMS_P2;Temp;Humidity;BMP_temperature;BMP_pressure;BME280_temperature;BME280_humidity;BME280_pressure;Samples;Min_cycle;Max_cycle;Signal;HPM_P1;HPM_P2
2022/05/17 00:02:23;;;;;;;1.65;1.17;;;12.50;99.90;;;;;;5013269;28;20049;-80
2022/05/17 00:04:50;;;;;;;3.30;1.60;;;12.60;99.90;;;;;;5013201;28;20056;-78
2022/05/17 00:07:17;;;;;;;4.13;1.67;;;12.60;99.90;;;;;;5013467;28;20025;-78
2022/05/17 00:09:43;;;;;;;4.53;1.55;;;;;;;;;;5012013;28;20141;-80
2022/05/17 00:12:09;;;;;;;4.70;1.83;;;12.60;99.90;;;;;;5014192;28;20605;-80
2022/05/17 00:14:35;;;;;;;2.67;1.65;;;12.60;99.90;;;;;;5013041;28;20123;-78
2022/05/17 00:17:02;;;;;;;2.08;1.88;;;;;;;;;;5012445;28;20511;-76
2022/05/17 00:19:29;;;;;;;2.60;1.60;;;12.60;99.90;;;;;;4994847;28;20042;-76
2022/05/17 00:21:54;;;;;;;3.85;1.67;;;12.60;99.90;;;;;;4993639;28;20382;-76
2022/05/17 00:24:23;;;;;;;2.38;1.40;;;12.60;99.90;;;;;;4995158;28;20094;-77
2022/05/17 00:26:49;;;;;;;2.90;1.92;;;12.60;99.90;;;;;;4995198;28;20041;-76
2022/05/17 00:29:15;;;;;;;3.55;1.90;;;12.50;99.90;;;;;;4994923;28;20027;-77
2022/05/17 00:31:40;;;;;;;2.13;1.90;;;12.50;99.90;;;;;;4994996;28;20028;-76
2022/05/17 00:34:07;;;;;;;2.92;2.05;;;12.60;99.90;;;;;;4995615;28;20027;-76
2022/05/17 00:36:34;;;;;;;2.42;1.88;;;12.50;99.90;;;;;;4993213;28;20026;-77
2022/05/17 00:39:00;;;;;;;3.85;1.80;;;;;;;;;;5010478;28;20455;-77
2022/05/17 00:41:26;;;;;;;3.15;1.40;;;;;;;;;;5009907;28;20174;-78
2022/05/17 00:46:39;;;;;;;2.03;1.58;;;12.30;99.90;;;;;;4995300;28;20029;-79
2022/05/17 00:49:08;;;;;;;1.77;1.58;;;;;;;;;;4994911;28;20046;-77
2022/05/17 00:51:34;;;;;;;13.98;2.72;;;;;;;;;;5010032;28;20058;-77
2022/05/17 00:54:14;;;;;;;2.28;1.55;;;12.20;99.90;;;;;;4995059;28;20817;-77
2022/05/17 00:56:49;;;;;;;3.05;1.85;;;12.10;99.90;;;;;;4995007;28;20018;-77
2022/05/17 00:59:15;;;;;;;5.18;1.98;;;12.10;99.90;;;;;;5010213;28;20080;-77
2022/05/17 01:01:41;;;;;;;2.47;2.33;;;12.10;99.90;;;;;;4992645;28;20034;-77
2022/05/17 01:04:18;;;;;;;3.60;1.70;;;12.00;99.90;;;;;;4993089;28;20027;-76
2022/05/17 01:06:48;;;;;;;4.05;2.92;;;11.90;99.90;;;;;;4994518;28;20172;-77
2022/05/17 01:09:14;;;;;;;2.20;1.85;;;12.00;99.90;;;;;;4994524;28;20034;-76
2022/05/17 01:11:41;;;;;;;2.17;1.70;;;12.00;99.90;;;;;;4995162;28;20045;-77
2022/05/17 01:16:55;;;;;;;3.90;1.88;;;;;;;;;;4995588;28;20045;-77
2022/05/17 01:19:21;;;;;;;3.58;1.83;;;11.90;99.90;;;;;;4995604;28;20037;-77
2022/05/17 01:21:47;;;;;;;3.03;1.50;;;11.90;99.90;;;;;;5002364;28;20030;-77
2022/05/17 01:24:12;;;;;;;2.55;1.80;;;11.90;99.90;;;;;;5002388;28;20027;-79
2022/05/17 01:26:42;;;;;;;4.00;1.73;;;11.80;99.90;;;;;;5002675;28;20065;-77
2022/05/17 01:29:09;;;;;;;;;;;11.80;99.90;;;;;;5003476;28;20068;-76
2022/05/17 01:31:38;;;;;;;5.10;2.92;;;11.70;99.90;;;;;;4991063;28;19945;-77
2022/05/17 01:34:10;;;;;;;7.68;1.85;;;11.70;99.90;;;;;;4992084;28;20026;-77
2022/05/17 01:36:37;;;;;;;2.88;1.88;;;11.60;99.90;;;;;;4992344;28;20030;-77
2022/05/17 01:39:04;;;;;;;5.97;1.95;;;11.60;99.90;;;;;;4991347;28;20030;-77
2022/05/17 01:41:31;;;;;;;5.15;1.70;;;11.60;99.90;;;;;;4991087;28;20082;-77
2022/05/17 01:43:57;;;;;;;3.00;2.05;;;11.50;99.90;;;;;;4991337;28;20058;-76
2022/05/17 01:46:23;;;;;;;4.03;2.00;;;11.50;99.90;;;;;;4991274;28;20507;-76
2022/05/17 01:48:49;;;;;;;1.60;1.42;;;11.50;99.90;;;;;;4990225;28;20049;-77
2022/05/17 01:51:15;;;;;;;1.55;1.45;;;11.50;99.90;;;;;;5006568;28;20034;-77
2022/05/17 01:53:41;;;;;;;2.80;1.45;;;11.50;99.90;;;;;;4990058;28;20064;-78
2022/05/17 01:56:09;;;;;;;3.22;2.25;;;11.50;99.90;;;;;;4991435;28;20146;-77
2022/05/17 01:58:35;;;;;;;1.80;1.70;;;11.40;99.90;;;;;;4990455;28;20077;-77
2022/05/17 02:01:03;;;;;;;4.40;1.63;;;11.30;99.90;;;;;;4990286;28;20510;-76
2022/05/17 02:03:29;;;;;;;4.32;2.20;;;11.30;99.90;;;;;;4992432;28;20053;-77
2022/05/17 02:05:54;;;;;;;2.13;1.70;;;11.30;99.90;;;;;;4990222;28;20054;-77
2022/05/17 02:08:20;;;;;;;3.45;1.90;;;11.30;99.90;;;;;;4990834;28;20034;-76
2022/05/17 02:10:46;;;;;;;4.70;2.42;;;11.30;99.90;;;;;;4990918;28;20053;-78
2022/05/17 02:13:12;;;;;;;2.67;1.40;;;11.40;99.90;;;;;;4991120;28;20445;-77
2022/05/17 02:15:38;;;;;;;1.77;1.48;;;;;;;;;;4990875;28;20039;-76
2022/05/17 02:18:04;;;;;;;6.70;1.77;;;11.30;99.90;;;;;;4990638;28;20031;-76
2022/05/17 02:20:30;;;;;;;2.40;1.60;;;11.40;99.90;;;;;;4989994;28;20022;-76
2022/05/17 02:22:56;;;;;;;2.13;1.48;;;11.30;99.90;;;;;;4994669;28;20179;-77
2022/05/17 02:25:22;;;;;;;2.42;2.22;;;11.30;99.90;;;;;;4993410;28;20030;-76
2022/05/17 02:27:48;;;;;;;3.45;2.03;;;11.20;99.90;;;;;;4993256;28;20026;-76
2022/05/17 02:30:14;;;;;;;2.70;1.75;;;11.20;99.90;;;;;;5010029;28;20121;-76
2022/05/17 02:32:40;;;;;;;3.53;2.05;;;11.20;99.90;;;;;;4993121;28;20117;-77
2022/05/17 02:35:07;;;;;;;6.10;2.83;;;11.20;99.90;;;;;;4994551;28;20102;-76
2022/05/17 02:37:33;;;;;;;3.00;1.55;;;11.10;99.90;;;;;;4998095;28;20030;-76
2022/05/17 02:39:59;;;;;;;1.98;1.70;;;11.00;99.90;;;;;;5000405;28;20030;-76
2022/05/17 02:42:25;;;;;;;3.70;2.00;;;11.00;99.90;;;;;;5001175;28;20046;-79
2022/05/17 02:44:51;;;;;;;4.97;1.88;;;;;;;;;;5001266;28;20026;-79
2022/05/17 02:47:17;;;;;;;10.93;2.70;;;11.10;99.90;;;;;;5015756;28;20026;-77
2022/05/17 02:49:45;;;;;;;11.35;2.45;;;11.10;99.90;;;;;;5000698;28;20526;-77
2022/05/17 02:52:11;;;;;;;2.22;2.00;;;11.00;99.90;;;;;;5000788;28;20022;-77
2022/05/17 02:54:37;;;;;;;1.40;1.30;;;10.90;99.90;;;;;;5000198;28;20026;-77
2022/05/17 02:57:04;;;;;;;3.05;1.83;;;10.90;99.90;;;;;;5015930;28;20026;-76
2022/05/17 02:59:34;;;;;;;1.45;1.35;;;10.90;99.90;;;;;;4999803;28;20030;-77
2022/05/17 03:01:59;;;;;;;3.55;1.90;;;10.90;99.90;;;;;;5003898;28;20048;-77
2022/05/17 03:04:28;;;;;;;3.50;1.63;;;10.90;99.90;;;;;;5018556;28;20030;-76
2022/05/17 03:06:54;;;;;;;3.22;1.92;;;10.80;99.90;;;;;;5001313;28;20049;-77
2022/05/17 03:09:20;;;;;;;4.53;2.75;;;10.80;99.90;;;;;;4997525;28;20109;-76
2022/05/17 03:11:45;;;;;;;2.22;1.70;;;10.80;99.90;;;;;;4997406;28;20050;-77
2022/05/17 03:14:13;;;;;;;2.25;1.77;;;10.80;99.90;;;;;;4997632;28;20085;-76
2022/05/17 03:16:40;;;;;;;2.00;1.63;;;10.80;99.90;;;;;;4996289;28;20137;-77
2022/05/17 03:19:06;;;;;;;1.98;1.58;;;10.80;99.90;;;;;;4997619;28;20035;-76
2022/05/17 03:21:32;;;;;;;1.95;1.65;;;10.80;99.90;;;;;;4998073;28;20113;-76
2022/05/17 03:23:58;;;;;;;2.70;1.67;;;10.90;99.90;;;;;;4999196;28;20072;-76
2022/05/17 03:26:24;;;;;;;2.17;1.90;;;10.90;99.90;;;;;;4996863;28;20487;-76
2022/05/17 03:28:50;;;;;;;2.97;1.38;;;11.00;99.90;;;;;;4997724;28;20108;-76
2022/05/17 03:31:16;;;;;;;1.98;1.77;;;11.00;99.90;;;;;;4995677;28;20022;-76
2022/05/17 03:33:42;;;;;;;2.72;1.60;;;10.80;99.90;;;;;;4997199;28;20054;-76
2022/05/17 03:36:09;;;;;;;2.10;1.58;;;10.80;99.90;;;;;;4997227;28;20538;-76
2022/05/17 03:38:36;;;;;;;2.88;1.45;;;10.70;99.90;;;;;;5003481;28;20052;-77
2022/05/17 03:41:02;;;;;;;1.98;1.73;;;10.80;99.90;;;;;;5001445;28;20113;-77
2022/05/17 03:43:29;;;;;;;2.22;1.52;;;10.80;99.90;;;;;;5002032;28;20027;-76
2022/05/17 03:45:56;;;;;;;3.63;2.42;;;10.70;99.90;;;;;;5000841;28;20456;-77
2022/05/17 03:48:24;;;;;;;1.75;1.50;;;10.80;99.90;;;;;;5002143;28;20068;-76
2022/05/17 03:50:49;;;;;;;4.13;2.47;;;10.80;99.90;;;;;;5002162;28;20023;-75
2022/05/17 03:53:15;;;;;;;1.33;1.23;;;10.90;99.90;;;;;;4998636;28;20502;-76
2022/05/17 03:55:41;;;;;;;1.70;1.60;;;10.90;99.90;;;;;;4996762;28;20501;-77
2022/05/17 03:58:07;;;;;;;2.75;1.50;;;10.90;99.90;;;;;;5012828;28;20129;-76
2022/05/17 04:00:37;;;;;;;4.20;1.90;;;10.80;99.90;;;;;;4996974;28;20026;-77
2022/05/17 04:03:03;;;;;;;1.80;1.70;;;10.80;99.90;;;;;;4996567;28;20054;-76
2022/05/17 04:05:29;;;;;;;1.60;1.50;;;10.80;99.90;;;;;;4995077;28;20034;-77
2022/05/17 04:07:55;;;;;;;1.60;1.50;;;10.90;99.90;;;;;;4996481;28;20109;-76
2022/05/17 04:10:22;;;;;;;2.45;1.88;;;10.90;99.90;;;;;;5012289;28;20030;-76
2022/05/17 04:12:47;;;;;;;2.85;1.60;;;11.10;99.90;;;;;;4994806;28;20026;-76
2022/05/17 04:15:17;;;;;;;1.65;1.23;;;11.10;99.90;;;;;;4996599;28;20065;-76
2022/05/17 04:17:43;;;;;;;2.78;2.25;;;11.10;99.90;;;;;;4995031;28;20049;-79
2022/05/17 04:20:12;;;;;;;1.58;1.48;;;11.20;99.90;;;;;;4996425;28;20022;-77
2022/05/17 04:22:43;;;;;;;1.45;1.35;;;11.40;99.90;;;;;;4996830;28;20026;-77
2022/05/17 04:25:09;;;;;;;2.50;2.08;;;11.30;99.90;;;;;;4996324;28;20022;-76
2022/05/17 04:27:35;;;;;;;1.48;1.35;;;11.50;99.90;;;;;;4996584;28;20037;-77
2022/05/17 04:30:01;;;;;;;3.10;1.85;;;11.50;99.90;;;;;;4996610;28;20110;-77
2022/05/17 04:32:27;;;;;;;2.22;1.20;;;11.70;99.90;;;;;;4995478;28;20071;-77
2022/05/17 04:34:53;;;;;;;2.53;1.92;;;12.10;99.90;;;;;;4993899;28;20478;-77
2022/05/17 04:37:18;;;;;;;3.35;1.70;;;12.60;99.90;;;;;;4993011;28;20050;-77
2022/05/17 04:39:44;;;;;;;2.30;1.65;;;;;;;;;;5006108;28;20064;-76
2022/05/17 04:42:10;;;;;;;1.92;1.48;;;13.40;99.90;;;;;;4991153;28;20027;-76
2022/05/17 04:44:36;;;;;;;1.80;1.63;;;13.60;99.90;;;;;;4989970;28;20052;-76
2022/05/17 04:47:03;;;;;;;4.13;2.13;;;13.70;99.90;;;;;;4991204;28;20021;-77
2022/05/17 04:49:29;;;;;;;1.90;1.08;;;13.80;99.90;;;;;;4991233;28;20035;-77
2022/05/17 04:51:55;;;;;;;2.03;1.10;;;13.60;99.90;;;;;;4991080;28;20046;-77
2022/05/17 04:54:21;;;;;;;1.85;1.63;;;13.50;99.90;;;;;;4990886;28;20058;-77
2022/05/17 04:56:47;;;;;;;2.97;1.77;;;13.40;99.90;;;;;;4990905;28;20410;-76
2022/05/17 04:59:12;;;;;;;2.28;1.17;;;13.30;99.90;;;;;;4991818;28;20035;-76
2022/05/17 05:01:38;;;;;;;2.70;1.55;;;;;;;;;;4993507;28;20102;-76
2022/05/17 05:04:04;;;;;;;3.17;1.88;;;13.40;99.90;;;;;;4993021;28;20030;-76
2022/05/17 05:06:31;;;;;;;2.80;1.50;;;;;;;;;;4992773;28;20167;-76
2022/05/17 05:08:57;;;;;;;2.33;1.70;;;13.40;99.90;;;;;;4992434;28;20129;-76
2022/05/17 05:11:24;;;;;;;2.58;2.05;;;13.60;99.90;;;;;;5006296;28;20105;-76
2022/05/17 05:13:49;;;;;;;1.70;1.60;;;13.60;99.90;;;;;;5005580;28;20041;-76
2022/05/17 05:16:15;;;;;;;3.75;1.50;;;13.70;99.90;;;;;;4990214;28;20046;-76
2022/05/17 05:18:41;;;;;;;2.53;1.55;;;13.80;99.90;;;;;;4990908;28;20064;-76
2022/05/17 05:21:13;;;;;;;6.90;2.33;;;13.90;99.90;;;;;;4989632;28;20026;-76
2022/05/17 05:23:40;;;;;;;2.17;1.73;;;14.00;99.90;;;;;;4990480;28;20026;-76
2022/05/17 05:26:07;;;;;;;1.42;1.23;;;13.90;99.90;;;;;;5005533;28;20026;-76
2022/05/17 05:28:34;;;;;;;1.73;1.30;;;14.00;99.90;;;;;;4990464;28;20042;-76
2022/05/17 05:31:00;;;;;;;1.80;1.67;;;14.30;99.90;;;;;;4992862;28;20049;-76
2022/05/17 05:33:26;;;;;;;2.70;2.13;;;14.50;99.90;;;;;;4990794;28;20027;-76
2022/05/17 05:35:53;;;;;;;3.50;1.80;;;14.50;99.90;;;;;;5005489;28;20027;-77
2022/05/17 05:38:19;;;;;;;1.65;1.48;;;14.60;99.90;;;;;;4988964;28;20033;-76
2022/05/17 05:40:44;;;;;;;2.22;1.88;;;14.70;99.90;;;;;;4988917;28;20116;-76
2022/05/17 05:43:10;;;;;;;5.55;2.28;;;14.80;99.90;;;;;;4990229;28;20058;-76
2022/05/17 05:45:36;;;;;;;3.80;2.22;;;14.90;99.90;;;;;;5005362;28;20029;-76
2022/05/17 05:48:02;;;;;;;4.78;1.95;;;15.10;99.90;;;;;;4989759;28;20034;-73
2022/05/17 05:50:28;;;;;;;2.13;1.92;;;15.30;99.90;;;;;;5005062;28;20097;-73
2022/05/17 05:53:09;;;;;;;1.95;1.80;;;15.60;99.90;;;;;;4990364;28;20027;-73
2022/05/17 05:55:35;;;;;;;4.68;1.70;;;15.90;99.90;;;;;;4990144;28;20102;-73
2022/05/17 05:58:02;;;;;;;11.05;2.55;;;16.10;99.90;;;;;;4988745;28;20506;-73
2022/05/17 06:00:29;;;;;;;5.03;2.58;;;16.40;99.90;;;;;;4988823;28;20026;-73
2022/05/17 06:02:55;;;;;;;4.10;2.05;;;16.50;99.90;;;;;;4989499;28;20030;-74
2022/05/17 06:05:22;;;;;;;4.30;1.98;;;16.70;99.90;;;;;;4989751;28;20530;-73
2022/05/17 06:07:48;;;;;;;6.35;1.95;;;16.70;99.90;;;;;;4990036;28;20265;-74
2022/05/17 06:10:14;;;;;;;5.43;2.60;;;16.80;99.90;;;;;;5004921;28;20360;-73
2022/05/17 06:12:40;;;;;;;5.35;2.33;;;17.10;99.90;;;;;;4989877;28;20529;-74
2022/05/17 06:15:07;;;;;;;3.13;2.10;;;17.30;99.90;;;;;;4989906;28;20042;-74
2022/05/17 06:17:33;;;;;;;4.22;1.90;;;17.80;99.90;;;;;;5012508;28;20150;-78
2022/05/17 06:19:59;;;;;;;3.70;2.13;;;17.80;99.90;;;;;;5007148;28;20057;-80
2022/05/17 06:22:26;;;;;;;2.58;1.80;;;17.90;99.90;;;;;;5022477;28;20084;-79
2022/05/17 06:24:52;;;;;;;4.78;1.75;;;18.10;99.90;;;;;;5005056;28;20026;-79
2022/05/17 06:27:18;;;;;;;4.75;1.85;;;18.30;99.90;;;;;;5004662;28;20092;-79
2022/05/17 06:29:43;;;;;;;4.28;2.30;;;18.40;99.90;;;;;;4992891;28;20120;-79
2022/05/17 06:32:14;;;;;;;2.47;2.00;;;18.70;99.90;;;;;;5005121;28;20125;-78
2022/05/17 06:34:41;;;;;;;6.15;2.90;;;18.80;99.90;;;;;;5022411;28;20042;-79
2022/05/17 06:37:08;;;;;;;3.28;2.13;;;18.80;99.90;;;;;;5011010;28;20033;-80
2022/05/17 06:39:35;;;;;;;5.40;2.17;;;18.70;99.90;;;;;;5010986;28;20069;-80
2022/05/17 06:42:02;;;;;;;6.65;2.92;;;18.90;99.90;;;;;;5010504;28;20072;-81
2022/05/17 06:44:28;;;;;;;2.80;2.00;;;19.30;99.90;;;;;;5008872;28;20117;-81
2022/05/17 06:46:55;;;;;;;3.45;1.88;;;19.50;99.90;;;;;;5010351;28;20490;-81
2022/05/17 06:49:22;;;;;;;2.13;1.70;;;19.70;99.90;;;;;;5010546;28;20138;-81
2022/05/17 06:51:48;;;;;;;1.95;1.40;;;19.70;99.90;;;;;;5010461;28;20022;-80
2022/05/17 06:54:14;;;;;;;4.68;1.90;;;20.00;99.90;;;;;;5009985;28;20033;-80
2022/05/17 06:56:40;;;;;;;4.25;2.20;;;20.50;99.90;;;;;;5010590;28;20040;-81
2022/05/17 06:59:07;;;;;;;7.22;2.45;;;21.10;99.90;;;;;;5010725;28;20025;-81
2022/05/17 07:01:33;;;;;;;6.22;2.10;;;21.20;99.90;;;;;;5008313;28;20125;-80
2022/05/17 07:03:59;;;;;;;3.53;1.92;;;21.20;99.90;;;;;;5025073;28;20034;-79
2022/05/17 07:06:26;;;;;;;5.75;2.08;;;21.00;99.90;;;;;;5009840;28;20072;-78
2022/05/17 07:08:52;;;;;;;5.07;1.55;;;20.40;99.90;;;;;;5010248;28;20072;-78
2022/05/17 07:14:03;;;;;;;6.22;1.95;;;21.00;99.90;;;;;;5009723;28;20076;-79
2022/05/17 07:16:29;;;;;;;1.75;1.20;;;21.60;99.90;;;;;;5025067;28;20054;-79
2022/05/17 07:18:54;;;;;;;2.22;2.03;;;22.00;99.90;;;;;;5010301;28;20018;-81
2022/05/17 07:21:20;;;;;;;6.22;1.85;;;22.30;99.90;;;;;;5024652;28;20053;-80
2022/05/17 07:23:46;;;;;;;3.20;2.00;;;22.20;99.90;;;;;;5024504;28;20406;-80
2022/05/17 07:26:12;;;;;;;2.72;1.33;;;21.60;99.90;;;;;;5009686;28;20034;-79
2022/05/17 07:28:43;;;;;;;4.82;1.58;;;21.50;99.90;;;;;;5009406;28;20038;-81
2022/05/17 07:31:09;;;;;;;2.90;1.80;;;22.00;99.90;;;;;;5009265;28;20481;-81
2022/05/17 07:33:35;;;;;;;2.50;1.77;;;22.80;99.90;;;;;;5010315;28;20088;-81
2022/05/17 07:36:02;;;;;;;3.03;1.52;;;23.50;99.90;;;;;;5008866;28;20026;-81
2022/05/17 07:38:28;;;;;;;4.25;1.10;;;23.70;99.90;;;;;;5008140;28;20077;-80
2022/05/17 07:40:54;;;;;;;3.65;2.05;;;24.30;99.90;;;;;;5009232;28;20434;-79
2022/05/17 07:43:20;;;;;;;4.63;2.00;;;24.50;98.00;;;;;;5009131;28;20036;-79
2022/05/17 07:45:49;;;;;;;4.43;2.10;;;23.40;99.90;;;;;;5009220;28;20105;-80
2022/05/17 07:48:22;;;;;;;;;;;23.00;99.90;;;;;;5009513;28;20030;-80
2022/05/17 07:50:49;;;;;;;3.80;1.58;;;23.40;99.90;;;;;;5009428;28;19905;-80
2022/05/17 07:53:16;;;;;;;3.33;1.90;;;23.00;99.90;;;;;;5008099;28;20449;-79
2022/05/17 07:55:44;;;;;;;2.97;1.42;;;23.10;99.90;;;;;;5009285;28;20113;-80
2022/05/17 07:58:11;;;;;;;4.65;1.63;;;23.10;99.90;;;;;;5009367;28;20426;-80
2022/05/17 08:00:38;;;;;;;2.45;1.27;;;23.20;99.90;;;;;;5009254;28;20205;-81
2022/05/17 08:03:05;;;;;;;3.53;1.95;;;23.20;99.90;;;;;;5007388;28;20442;-80
2022/05/17 08:05:32;;;;;;;2.20;1.65;;;23.50;99.90;;;;;;5009287;28;20386;-79
2022/05/17 08:07:57;;;;;;;9.55;2.78;;;22.60;99.90;;;;;;5008865;28;20632;-79
2022/05/17 08:10:23;;;;;;;5.93;1.90;;;22.60;99.90;;;;;;5009131;28;20113;-81
2022/05/17 08:12:50;;;;;;;3.67;2.00;;;23.30;99.90;;;;;;5008673;28;20599;-79
2022/05/17 08:15:20;;;;;;;4.43;2.22;;;23.20;99.90;;;;;;5007804;28;20022;-78
2022/05/17 08:17:46;;;;;;;7.10;1.80;;;23.30;99.90;;;;;;5008734;28;20490;-80
2022/05/17 08:20:12;;;;;;;4.93;2.00;;;23.10;99.90;;;;;;5024044;28;20044;-80
2022/05/17 08:22:43;;;;;;;1.65;1.13;;;23.80;99.90;;;;;;5009742;28;20026;-82
2022/05/17 08:27:56;;;;;;;4.15;1.40;;;25.10;96.80;;;;;;5008671;28;20121;-80
2022/05/17 08:30:26;;;;;;;1.58;1.40;;;25.40;94.90;;;;;;5009705;28;20449;-80
2022/05/17 08:33:16;;;;;;;3.80;1.83;;;24.70;98.20;;;;;;5009725;28;20030;-81
2022/05/17 08:35:42;;;;;;;3.53;1.50;;;24.50;99.70;;;;;;5025394;28;20057;-80
2022/05/17 08:38:11;;;;;;;4.97;1.67;;;23.90;99.90;;;;;;5023461;28;20103;-80
2022/05/17 08:40:56;;;;;;;6.63;1.83;;;23.60;99.90;;;;;;5008136;28;20049;-79
2022/05/17 08:43:49;;;;;;;3.03;1.52;;;23.70;99.90;;;;;;5008089;28;20037;-76
2022/05/17 08:46:14;;;;;;;5.82;2.50;;;23.90;99.90;;;;;;5007947;28;20030;-80
2022/05/17 08:48:49;;;;;;;4.50;1.45;;;24.00;99.90;;;;;;5022993;28;20165;-77
2022/05/17 08:51:20;;;;;;;1.83;1.20;;;23.80;99.90;;;;;;5023270;28;20030;-79
2022/05/17 08:53:47;;;;;;;6.43;2.33;;;23.90;99.90;;;;;;5007700;28;20116;-80
2022/05/17 08:56:15;;;;;;;5.05;1.77;;;24.20;99.90;;;;;;5023023;28;20489;-81
2022/05/17 08:58:50;;;;;;;5.65;1.40;;;23.80;99.90;;;;;;5007909;28;20037;-81
2022/05/17 09:01:35;;;;;;;4.65;1.25;;;24.10;99.90;;;;;;5007531;28;20064;-76
2022/05/17 09:04:23;;;;;;;2.90;1.33;;;24.40;99.90;;;;;;5007482;28;20079;-76
2022/05/17 09:06:55;;;;;;;3.88;1.80;;;24.50;99.40;;;;;;5023193;28;20096;-75
2022/05/17 09:09:42;;;;;;;2.35;1.67;;;24.70;99.90;;;;;;5007568;28;20368;-76
2022/05/17 09:12:31;;;;;;;2.30;1.42;;;24.30;99.70;;;;;;5006252;28;20029;-76
2022/05/17 09:15:00;;;;;;;5.40;1.48;;;24.10;99.90;;;;;;5005023;28;20509;-76
2022/05/17 09:17:28;;;;;;;1.75;0.82;;;24.20;99.90;;;;;;5007588;28;20042;-76
2022/05/17 09:19:54;;;;;;;4.90;1.38;;;24.60;99.90;;;;;;5021947;28;20125;-76
2022/05/17 09:22:21;;;;;;;3.88;2.30;;;24.80;99.90;;;;;;5007306;28;20026;-76
2022/05/17 09:24:55;;;;;;;5.75;1.88;;;24.80;97.10;;;;;;5022044;28;20033;-76
2022/05/17 09:27:41;;;;;;;1.90;1.20;;;24.60;96.70;;;;;;5006752;28;20076;-76
2022/05/17 09:30:26;;;;;;;7.25;1.17;;;24.60;92.00;;;;;;5005440;28;20491;-76
2022/05/17 09:33:08;;;;;;;1.80;0.82;;;24.70;99.90;;;;;;5007260;28;20037;-76
2022/05/17 09:35:42;;;;;;;2.70;1.20;;;25.20;74.30;;;;;;5007277;28;20022;-77
2022/05/17 09:38:09;;;;;;;4.13;1.17;;;24.90;83.50;;;;;;5007320;28;20095;-76
2022/05/17 09:40:40;;;;;;;3.03;0.82;;;24.80;73.80;;;;;;5007261;28;20072;-76
2022/05/17 09:43:12;;;;;;;4.72;2.03;;;24.80;75.00;;;;;;5006888;28;20026;-77
2022/05/17 09:45:46;;;;;;;3.00;1.02;;;25.50;76.40;;;;;;5007287;28;20075;-76
2022/05/17 09:48:24;;;;;;;2.55;0.90;;;25.50;73.10;;;;;;5006947;28;20037;-77
2022/05/17 09:53:45;;;;;;;3.08;1.98;;;25.50;79.50;;;;;;5007386;28;20444;-77
2022/05/17 09:56:12;;;;;;;1.83;1.67;;;25.20;86.50;;;;;;5006776;28;20056;-76
2022/05/17 09:58:40;;;;;;;1.77;1.08;;;25.00;79.50;;;;;;5007063;28;20033;-77
2022/05/17 10:01:19;;;;;;;1.58;1.00;;;24.70;93.10;;;;;;5006797;28;20084;-77
2022/05/17 10:04:04;;;;;;;3.00;1.00;;;24.70;84.40;;;;;;5023461;28;20132;-76
2022/05/17 10:06:35;;;;;;;2.92;1.52;;;24.50;91.70;;;;;;5007239;28;20022;-76
2022/05/17 10:09:10;;;;;;;2.35;1.23;;;24.70;87.80;;;;;;5006932;28;20038;-76
2022/05/17 10:12:23;;;;;;;3.28;1.33;;;25.40;75.20;;;;;;5011121;28;20037;-76
2022/05/17 10:14:56;;;;;;;3.95;0.95;;;25.90;76.90;;;;;;5008009;28;20055;-77
2022/05/17 10:17:45;;;;;;;2.17;0.80;;;26.00;67.20;;;;;;5008674;28;20136;-76
2022/05/17 10:20:41;;;;;;;2.05;0.98;;;25.40;67.20;;;;;;5009509;28;20494;-76
2022/05/17 10:23:57;;;;;;;4.38;0.95;;;25.10;71.20;;;;;;5008530;28;20042;-76
2022/05/17 10:26:53;;;;;;;2.75;0.70;;;25.40;71.10;;;;;;5008473;28;20033;-76
2022/05/17 10:29:46;;;;;;;1.95;0.95;;;25.50;70.80;;;;;;5008573;28;20053;-77
2022/05/17 10:32:38;;;;;;;0.80;0.70;;;25.20;79.40;;;;;;5010577;28;20026;-76
2022/05/17 10:35:35;;;;;;;1.77;0.95;;;25.20;67.70;;;;;;5025803;28;20398;-77
2022/05/17 10:38:11;;;;;;;5.53;1.10;;;25.40;67.60;;;;;;5009521;28;20064;-77
2022/05/17 10:40:44;;;;;;;1.83;0.93;;;25.40;65.80;;;;;;5025227;28;20030;-76
2022/05/17 10:43:32;;;;;;;2.67;0.90;;;25.40;66.50;;;;;;5010415;28;20076;-77
2022/05/17 10:46:14;;;;;;;3.40;1.10;;;25.30;78.10;;;;;;5009998;28;20401;-76
2022/05/17 10:48:42;;;;;;;4.07;1.25;;;25.70;68.40;;;;;;5009982;28;20038;-76
2022/05/17 10:51:40;;;;;;;3.97;0.70;;;25.70;68.80;;;;;;5010573;28;20068;-77
2022/05/17 10:54:21;;;;;;;3.78;1.67;;;25.80;80.20;;;;;;5008634;28;20382;-76
2022/05/17 10:57:17;;;;;;;1.90;0.80;;;26.00;63.10;;;;;;5025070;28;20030;-77
2022/05/17 11:00:00;;;;;;;1.27;0.82;;;25.90;64.80;;;;;;5009979;28;20026;-78
2022/05/17 11:02:28;;;;;;;1.65;1.15;;;25.90;68.90;;;;;;5009819;28;20037;-76
2022/05/17 11:05:24;;;;;;;3.37;1.10;;;25.60;67.70;;;;;;5026013;28;20032;-77
2022/05/17 11:07:56;;;;;;;1.08;0.90;;;25.50;65.90;;;;;;5012679;28;20026;-76
2022/05/17 11:10:35;;;;;;;2.70;0.98;;;25.70;67.90;;;;;;5023244;28;20461;-77
2022/05/17 11:13:55;;;;;;;4.05;1.10;;;26.20;63.90;;;;;;5008295;28;20430;-76
2022/05/17 11:16:37;;;;;;;1.45;0.85;;;26.50;63.70;;;;;;5004502;28;20077;-78
2022/05/17 11:19:14;;;;;;;3.53;1.20;;;26.80;61.10;;;;;;5005102;28;20026;-76
2022/05/17 11:21:55;;;;;;;1.55;0.85;;;27.30;63.00;;;;;;5007080;28;20064;-78
2022/05/17 11:24:39;;;;;;;2.50;1.40;;;27.10;64.00;;;;;;5008530;28;20026;-76
2022/05/17 11:27:49;;;;;;;6.65;0.98;;;26.80;65.30;;;;;;5010013;28;20026;-76
2022/05/17 11:30:34;;;;;;;2.65;0.95;;;26.60;61.00;;;;;;5007858;28;20586;-76
2022/05/17 11:33:22;;;;;;;2.05;0.90;;;26.70;60.70;;;;;;5025014;28;20030;-76
2022/05/17 11:35:56;;;;;;;1.95;0.70;;;26.90;60.60;;;;;;5007892;28;20554;-76
2022/05/17 11:38:31;;;;;;;9.85;1.13;;;26.80;61.60;;;;;;5009325;28;20117;-83
2022/05/17 11:41:18;;;;;;;2.30;1.23;;;27.00;62.60;;;;;;5010372;28;20030;-83
2022/05/17 11:43:54;;;;;;;1.48;1.10;;;27.00;60.90;;;;;;5010569;28;20022;-83
2022/05/17 11:46:29;;;;;;;1.52;0.80;;;27.10;60.80;;;;;;5009576;28;20089;-82
2022/05/17 11:49:21;;;;;;;3.58;1.35;;;27.30;59.60;;;;;;5024503;28;20042;-81
2022/05/17 11:51:58;;;;;;;4.80;1.30;;;27.10;60.20;;;;;;5009066;28;20034;-80
2022/05/17 11:54:40;;;;;;;3.10;1.05;;;27.30;62.40;;;;;;5009252;28;20097;-80
2022/05/17 11:57:09;;;;;;;1.27;0.80;;;27.60;61.20;;;;;;5008991;28;20482;-81
2022/05/17 11:59:54;;;;;;;2.28;0.80;;;27.50;62.00;;;;;;5007816;28;20038;-81
2022/05/17 12:02:39;;;;;;;1.55;1.35;;;27.60;63.60;;;;;;5009128;28;20113;-81
2022/05/17 12:05:06;;;;;;;3.00;1.15;;;27.80;60.30;;;;;;5008946;28;20517;-80
2022/05/17 12:07:32;;;;;;;2.22;0.90;;;27.20;63.10;;;;;;5008560;28;20013;-79
2022/05/17 12:10:14;;;;;;;1.88;1.00;;;27.80;60.30;;;;;;5023561;28;20096;-80
2022/05/17 12:12:51;;;;;;;1.65;0.82;;;28.50;59.10;;;;;;5024385;28;20068;-85
2022/05/17 12:15:45;;;;;;;2.40;1.13;;;28.60;58.70;;;;;;5024033;28;20145;-80
2022/05/17 12:18:32;;;;;;;1.92;1.30;;;28.10;59.50;;;;;;5023666;28;20030;-81
2022/05/17 12:21:35;;;;;;;2.47;1.02;;;28.10;60.80;;;;;;5024068;28;20464;-82
2022/05/17 12:24:24;;;;;;;1.52;0.80;;;28.80;57.90;;;;;;5024057;28;20378;-81
2022/05/17 12:27:18;;;;;;;1.17;0.80;;;28.40;58.10;;;;;;5008462;28;20033;-80
2022/05/17 12:32:38;;;;;;;6.82;1.20;;;28.90;57.60;;;;;;5007983;28;20105;-81
2022/05/17 12:35:05;;;;;;;1.13;0.70;;;28.80;58.60;;;;;;5009234;28;20065;-81
2022/05/17 12:37:31;;;;;;;1.85;1.00;;;29.50;56.30;;;;;;5009384;28;20427;-80
2022/05/17 12:43:02;;;;;;;2.97;0.85;;;29.50;56.90;;;;;;5008914;28;20088;-76
2022/05/17 12:45:39;;;;;;;4.30;0.80;;;29.40;54.30;;;;;;5008595;28;20026;-76
2022/05/17 12:48:35;;;;;;;2.00;0.93;;;29.20;54.20;;;;;;5007885;28;20146;-77
2022/05/17 12:51:04;;;;;;;1.77;1.35;;;29.10;54.90;;;;;;5006664;28;20040;-76
2022/05/17 12:53:39;;;;;;;2.67;0.80;;;29.50;54.80;;;;;;5007804;28;20036;-76
2022/05/17 12:56:11;;;;;;;1.60;0.70;;;29.20;53.00;;;;;;5007537;28;20030;-76
2022/05/17 12:58:48;;;;;;;2.80;0.70;;;29.20;54.00;;;;;;5008057;28;20133;-76
2022/05/17 13:01:20;;;;;;;1.05;0.80;;;29.00;53.90;;;;;;5007505;28;20030;-76
2022/05/17 13:03:45;;;;;;;1.75;1.20;;;29.00;52.00;;;;;;5005870;28;20045;-76
2022/05/17 13:06:11;;;;;;;4.13;1.23;;;29.30;53.70;;;;;;5007516;28;20383;-76
2022/05/17 13:08:38;;;;;;;3.75;0.70;;;30.00;52.70;;;;;;5006677;28;20037;-76
2022/05/17 13:11:26;;;;;;;2.58;1.05;;;29.10;54.70;;;;;;5007729;28;20025;-77
2022/05/17 13:14:05;;;;;;;2.88;0.75;;;29.70;53.10;;;;;;5006319;28;20025;-80
2022/05/17 13:16:36;;;;;;;3.72;0.95;;;30.40;52.40;;;;;;5007313;28;20129;-80
2022/05/17 13:19:04;;;;;;;2.10;0.77;;;30.70;52.70;;;;;;5006285;28;20026;-80
2022/05/17 13:21:42;;;;;;;1.50;0.73;;;30.00;51.90;;;;;;5006321;28;20046;-79
2022/05/17 13:24:22;;;;;;;2.45;1.05;;;30.00;52.40;;;;;;5006780;28;20467;-79
2022/05/17 13:26:49;;;;;;;5.45;0.98;;;29.50;51.00;;;;;;5007341;28;20026;-80
2022/05/17 13:29:30;;;;;;;3.72;1.25;;;30.20;51.50;;;;;;5005556;28;20045;-79
2022/05/17 13:32:06;;;;;;;2.20;0.70;;;30.90;51.50;;;;;;5005147;28;20053;-79